Airfield :
LOGIN :

Register | Disclaimer

   EN    FR    IT 

 










Legend :    VFR   Marginal VFR   IFR   Intensive IFR   Very Intensive IFR
Visi :
Ceiling :
>= 8 km
>= 3000ft
5 to 8 km
1000 to 3000 ft
1500m to 5 km
500 to 1000 ft
800 to 1500m
200 to 500 ft
< 800m
< 200 ft
Symbols :   Thunderstorms  Fog  Heavy snow  Heavy precipitations  Wind > 20 kt
SIGMETs :     Misc.  Thunderstorms  Icing  Turbulence  Mountain Waves  Volcanic Ashes







- Airport Elevation : 18 ft
- IATA code : AJA
- Download approach charts


LFKJ - Ajaccio

CURRENT METAR :
  • 171930Z AUTO 04003KT 9999 BKN031 BKN037 OVC052 09/07 Q1014 TEMPO SHRA BKN025TCU BKN040

EXPIRED METARs :
  • 171900Z AUTO 04003KT 9999 -RADZ FEW027 BKN037 BKN049 09/07 Q1014 TEMPO SHRA BKN025TCU BKN040
  • 171830Z AUTO 05004KT 9999 BKN028 BKN056 BKN066 09/07 Q1014 TEMPO SHRA BKN025TCU BKN040
  • 171800Z AUTO 01004KT 350V050 9999 BKN029 OVC056 09/08 Q1014 TEMPO SHRA BKN025TCU BKN040
  • 171730Z AUTO 05006KT 9999 FEW029 SCT076 BKN086 09/07 Q1014 TEMPO SHRA BKN025TCU BKN040
  • 171700Z AUTO 36004KT 9999 -RA BKN030 OVC038 10/09 Q1014 TEMPO SHRA BKN025TCU BKN040

TAF TAF LFKJ
Valid from the 17 at 15:00 until the 18 at 15:00 UTC


171400Z 1715/1815 04006KT 9999 SCT030 BKN050
TEMPO 1715/1722 24006KT 7000 SHRA BKN025TCU BKN040
ATIS : +33 4 95 23 59 85
No reported NOTAMs for that airfield.



MET'MAP, your aeronautical weather chart ! - Copyright ORBIFLY December 2007 - Disclaimer

ORBIFLY MET'MAP TEAM :

Programming & Development : Alexandra Zaïnal
Concept & Development : Baudouin d'Aumeries
Co-Development & Prog : Marc-Olivier Méhu
Technical & hardware support : Manuel Goepfert

Contact : metmap@orbifly.com




SOURCES & CREDITS :

   NOAA